»·PEaware :: N5610E KBFL-KMHV

N5610E :: KBFL-KMHV

FLIGHT INFORMATION

Flight Status: Arrived
Operator: Privately registered:
United States
More flights under this callsign
Pilot: Matt B. (36641)
Aircraft: CESSNA 172 SKYHAWK
(C172)
More flights by this aircraft type
Origin: KBFL Meadows
United States
Destination: KMHV Mojave
United States
More flights between these airports :: More routes between these airports
Route: TO
File this flight plan on PilotEdge
Remarks:
Altitude:
(Current/Filed)
3,500ft
Speed:
(Current/Filed)
120kts
Departed: 12-Apr-22 07:44 AM
Arrived: 12-Apr-22 08:13 AM
Distance/Time
Traveled:
49nm/0:29
Distance/Time
To Go:
Arrived

Flight Plot

Page will automatically refresh every two minutes.

Flight plan parsing failed; only flown route is shown


Map Options




Map Legend


Flown Route
Filed Route
Departure Airport
Arrival Airport
Navaid (VOR, NDB)
Fix

Horizontal Profiles

Position Reports

Time Latitude Longitude Heading Altitude Ground
Speed
12-Apr-22 07:28 35.437605 -119.055133 132 501ft 0kts
12-Apr-22 07:29 35.437605 -119.055133 132 501ft 0kts
12-Apr-22 07:30 35.437605 -119.055133 132 501ft 0kts
12-Apr-22 07:31 35.437605 -119.055133 132 501ft 0kts
12-Apr-22 07:32 35.437605 -119.055133 132 501ft 0kts
12-Apr-22 07:33 35.437605 -119.055133 132 501ft 0kts
12-Apr-22 07:34 35.437605 -119.055133 132 501ft 0kts
12-Apr-22 07:36 35.437605 -119.055133 132 501ft 0kts
12-Apr-22 07:37 35.437605 -119.055133 132 501ft 0kts
12-Apr-22 07:38 35.437514 -119.056177 292 499ft 14kts
12-Apr-22 07:39 35.433976 -119.054087 135 492ft 23kts
12-Apr-22 07:40 35.429140 -119.048262 135 489ft 24kts
12-Apr-22 07:41 35.425851 -119.044828 270 480ft 8kts
12-Apr-22 07:42 35.425809 -119.045043 230 479ft 0kts
12-Apr-22 07:43 35.425808 -119.045047 242 479ft 0kts
12-Apr-22 07:44 35.436071 -119.059451 315 963ft 86kts
12-Apr-22 07:45 35.441931 -119.050903 133 1801ft 111kts
12-Apr-22 07:46 35.424301 -119.018776 116 2844ft 100kts
12-Apr-22 07:47 35.412978 -118.985173 96 3804ft 101kts
12-Apr-22 07:48 35.408637 -118.947050 108 3919ft 141kts
12-Apr-22 07:49 35.396281 -118.907040 122 3474ft 108kts
12-Apr-22 07:50 35.379259 -118.873835 123 3621ft 108kts
12-Apr-22 07:51 35.365024 -118.844896 119 4216ft 102kts
12-Apr-22 07:52 35.349627 -118.811924 119 4834ft 115kts
12-Apr-22 07:53 35.334957 -118.780601 119 5870ft 83kts
12-Apr-22 07:54 35.324586 -118.758334 119 6802ft 76kts
12-Apr-22 07:55 35.313783 -118.734381 117 7626ft 81kts
12-Apr-22 07:56 35.302768 -118.709663 117 8439ft 79kts
12-Apr-22 07:56 35.294285 -118.690830 117 9103ft 67kts
12-Apr-22 07:57 35.284013 -118.669593 117 9453ft 104kts
12-Apr-22 07:59 35.264095 -118.624868 117 9416ft 135kts
12-Apr-22 08:00 35.246133 -118.584416 116 9401ft 136kts
12-Apr-22 08:00 35.230992 -118.550325 116 9389ft 137kts
12-Apr-22 08:01 35.212857 -118.509382 116 9389ft 136kts
12-Apr-22 08:02 35.194825 -118.468450 116 9389ft 136kts
12-Apr-22 08:04 35.173853 -118.420559 116 9389ft 136kts
12-Apr-22 08:04 35.158944 -118.386318 116 9387ft 137kts
12-Apr-22 08:05 35.140398 -118.343452 116 8797ft 143kts
12-Apr-22 08:06 35.121564 -118.299536 116 8188ft 143kts
12-Apr-22 08:08 35.098511 -118.244719 116 6826ft 155kts
12-Apr-22 08:08 35.083449 -118.203174 105 5235ft 159kts
12-Apr-22 08:09 35.073897 -118.154364 93 3515ft 129kts
12-Apr-22 08:10 35.064361 -118.123421 187 3257ft 86kts
12-Apr-22 08:11 35.059228 -118.146324 267 2742ft 56kts
12-Apr-22 08:12 35.059132 -118.157380 247 2766ft 11kts
12-Apr-22 08:13 35.056710 -118.160150 282 2766ft 2kts
12-Apr-22 08:14 35.056722 -118.160158 355 2766ft 0kts
12-Apr-22 08:15 35.056722 -118.160158 355 2766ft 0kts
12-Apr-22 08:16 35.056722 -118.160158 355 2766ft 0kts
12-Apr-22 08:17 35.056722 -118.160158 355 2766ft 0kts
12-Apr-22 08:18 35.056722 -118.160158 355 2766ft 0kts
12-Apr-22 08:19 35.056722 -118.160158 355 2766ft 0kts
12-Apr-22 08:20 35.056722 -118.160158 355 2766ft 0kts
12-Apr-22 08:21 35.056722 -118.160158 355 2766ft 0kts
12-Apr-22 08:22 35.056722 -118.160158 355 2766ft 0kts
12-Apr-22 08:23 35.056722 -118.160158 355 2766ft 0kts
12-Apr-22 08:24 35.056722 -118.160158 355 2766ft 0kts
12-Apr-22 08:25 35.056722 -118.160158 355 2766ft 0kts
12-Apr-22 08:26 35.056722 -118.160158 355 2766ft 0kts

Navigation Log

Ident Type
Flight plan parsing failed, navigation log unavailable